Time;durP1;ratioP1;P1;durP2;ratioP2;P2;SDS_P1;SDS_P2;PMS_P1;PMS_P2;Temp;Humidity;BMP_temperature;BMP_pressure;BME280_temperature;BME280_humidity;BME280_pressure;Samples;Min_cycle;Max_cycle;Signal;HPM_P1;HPM_P2
2022/12/31 00:00:27;;;;;;;157.33;66.20;;;;;;;5.95;87.33;95831.88;4975617;28;20182;-77
2022/12/31 00:02:52;;;;;;;137.63;61.77;;;;;;;6.07;87.53;95851.50;4979593;28;20194;-78
2022/12/31 00:05:18;;;;;;;132.63;62.87;;;;;;;6.09;87.43;95853.97;4982081;28;20267;-78
2022/12/31 00:07:43;;;;;;;141.37;64.10;;;;;;;6.13;87.05;95850.09;4974369;28;20169;-77
2022/12/31 00:10:09;;;;;;;143.57;65.00;;;;;;;6.13;87.40;95833.56;4977692;28;20189;-78
2022/12/31 00:12:34;;;;;;;142.80;62.67;;;;;;;6.23;86.96;95848.13;4985533;28;20671;-78
2022/12/31 00:15:00;;;;;;;131.50;59.67;;;;;;;6.25;86.85;95840.13;4981124;28;20185;-77
2022/12/31 00:17:25;;;;;;;124.27;54.33;;;;;;;6.21;86.78;95842.25;4974223;28;20629;-77
2022/12/31 00:19:51;;;;;;;113.57;52.77;;;;;;;6.07;87.27;95825.38;4973409;28;20170;-77
2022/12/31 00:22:16;;;;;;;128.37;55.63;;;;;;;6.25;87.61;95847.97;4982441;28;20204;-78
2022/12/31 00:24:41;;;;;;;138.00;65.23;;;;;;;6.23;87.70;95853.34;4970393;28;20457;-77
2022/12/31 00:27:07;;;;;;;117.63;52.83;;;;;;;6.23;87.43;95837.66;4973797;28;20188;-77
2022/12/31 00:29:32;;;;;;;109.97;50.77;;;;;;;6.31;87.32;95850.75;4973554;28;20224;-77
2022/12/31 00:31:57;;;;;;;125.50;58.03;;;;;;;6.11;88.01;95825.88;4971530;28;20480;-77
2022/12/31 00:34:23;;;;;;;110.90;52.33;;;;;;;6.36;87.70;95861.56;4973386;28;20181;-77
2022/12/31 00:36:48;;;;;;;112.07;52.20;;;;;;;6.21;86.83;95833.59;4982805;28;20185;-77
2022/12/31 00:39:14;;;;;;;110.87;48.97;;;;;;;6.49;86.97;95863.72;4972017;28;20220;-77
2022/12/31 00:41:39;;;;;;;101.63;44.77;;;;;;;6.48;87.15;95863.91;4973298;28;20188;-77
2022/12/31 00:44:05;;;;;;;106.00;46.40;;;;;;;6.52;87.00;95873.03;4981821;28;20202;-77
2022/12/31 00:46:30;;;;;;;99.87;43.90;;;;;;;6.43;86.46;95852.09;4983432;28;20181;-77
2022/12/31 00:48:56;;;;;;;107.03;47.67;;;;;;;6.63;86.69;95884.03;4981851;28;20292;-77
2022/12/31 00:51:23;;;;;;;94.20;44.80;;;;;;;6.61;86.71;95877.31;4988471;28;20204;-77
2022/12/31 00:53:48;;;;;;;117.37;45.67;;;;;;;6.58;86.90;95880.25;4983158;28;20954;-77
2022/12/31 00:56:20;;;;;;;104.17;46.17;;;;;;;6.65;86.47;95870.78;4972808;28;20173;-78
2022/12/31 00:58:47;;;;;;;112.17;45.67;;;;;;;6.71;87.00;95881.44;4981363;28;20201;-78
2022/12/31 01:01:16;;;;;;;88.93;43.03;;;;;;;6.77;87.29;95882.56;4985164;28;20180;-77
2022/12/31 01:03:42;;;;;;;92.17;43.27;;;;;;;6.82;86.41;95883.75;4985925;28;20192;-77
2022/12/31 01:06:08;;;;;;;99.60;43.33;;;;;;;6.88;86.51;95882.25;4973275;28;20575;-78
2022/12/31 01:08:33;;;;;;;88.82;45.08;;;;;;;6.89;86.65;95889.13;4970811;28;20444;-77
2022/12/31 01:11:18;;;;;;;84.57;39.47;;;;;;;6.92;86.00;95886.16;4972754;28;20197;-78
2022/12/31 01:14:09;;;;;;;79.30;41.00;;;;;;;6.56;86.05;95862.13;4971114;28;20432;-77
2022/12/31 01:16:41;;;;;;;78.60;36.27;;;;;;;6.83;85.72;95898.44;4971371;28;20296;-77
2022/12/31 01:19:10;;;;;;;86.97;37.43;;;;;;;6.78;85.41;95895.50;4986295;28;20181;-77
2022/12/31 01:21:37;;;;;;;79.03;35.53;;;;;;;6.58;85.53;95864.53;4976714;28;20256;-77
2022/12/31 01:24:03;;;;;;;78.97;36.60;;;;;;;6.55;85.74;95873.56;4990483;28;20188;-77
2022/12/31 01:26:29;;;;;;;70.33;35.87;;;;;;;6.61;85.97;95904.28;4977498;28;20181;-78
2022/12/31 01:28:54;;;;;;;82.53;35.50;;;;;;;6.34;86.30;95888.84;4976262;28;20542;-78
2022/12/31 01:31:21;;;;;;;67.17;34.17;;;;;;;6.40;86.74;95901.28;4980791;28;20176;-77
2022/12/31 01:33:47;;;;;;;75.63;36.20;;;;;;;6.22;86.75;95879.69;4989684;28;20365;-77
2022/12/31 01:36:17;;;;;;;79.63;38.20;;;;;;;6.16;86.70;95875.88;4982988;28;20717;-78
2022/12/31 01:38:43;;;;;;;67.43;34.27;;;;;;;6.25;87.14;95900.25;4977589;28;20182;-78
2022/12/31 01:41:15;;;;;;;70.70;35.57;;;;;;;6.28;87.07;95911.22;4986944;28;20580;-77
2022/12/31 01:43:46;;;;;;;76.27;35.47;;;;;;;6.15;86.91;95897.78;4984262;28;20660;-78
2022/12/31 01:46:17;;;;;;;83.23;35.03;;;;;;;6.17;87.05;95908.06;4978091;28;20632;-77
2022/12/31 01:48:49;;;;;;;82.07;36.03;;;;;;;6.13;86.98;95915.44;4984672;28;20970;-77
2022/12/31 01:51:14;;;;;;;76.60;36.03;;;;;;;6.07;87.27;95908.19;4978228;28;20662;-77
2022/12/31 01:53:41;;;;;;;87.47;34.77;;;;;;;5.89;87.23;95889.16;4983371;28;20185;-77
2022/12/31 01:56:07;;;;;;;66.70;34.17;;;;;;;6.00;87.33;95917.63;4987570;28;20954;-77
2022/12/31 01:58:41;;;;;;;72.00;35.63;;;;;;;5.86;87.18;95905.13;4987299;28;20192;-77
2022/12/31 02:01:10;;;;;;;67.43;35.13;;;;;;;5.93;86.90;95917.44;4979298;28;20579;-78
2022/12/31 02:03:36;;;;;;;77.50;37.87;;;;;;;5.74;86.89;95896.75;4971829;28;20174;-78
2022/12/31 02:06:19;;;;;;;66.83;36.17;;;;;;;5.74;87.12;95890.69;4980799;28;20182;-77
2022/12/31 02:08:44;;;;;;;77.30;36.70;;;;;;;5.78;87.45;95920.78;4984102;28;20327;-78
2022/12/31 02:11:22;;;;;;;72.33;35.40;;;;;;;5.75;87.65;95918.47;4988642;28;20307;-78
2022/12/31 02:13:47;;;;;;;80.03;36.10;;;;;;;5.69;87.41;95917.28;4974458;28;20180;-77
2022/12/31 02:16:44;;;;;;;77.93;36.77;;;;;;;5.72;87.45;95916.97;4988801;28;20268;-77
2022/12/31 02:19:38;;;;;;;77.13;37.13;;;;;;;5.66;87.68;95928.03;4948617;28;20679;-77
2022/12/31 02:22:25;;;;;;;82.77;38.27;;;;;;;5.64;87.87;95922.97;4995383;28;20181;-76
2022/12/31 02:25:08;;;;;;;85.33;39.80;;;;;;;5.61;88.72;95919.84;4985295;28;20215;-77
2022/12/31 02:28:12;;;;;;;77.80;38.33;;;;;;;5.61;88.66;95918.06;4990590;28;20177;-77
2022/12/31 02:30:40;;;;;;;79.33;36.93;;;;;;;5.53;88.35;95909.38;4940938;29;20217;-77
2022/12/31 02:33:23;;;;;;;76.73;38.57;;;;;;;5.40;88.38;95903.72;4979203;28;20429;-76
2022/12/31 02:35:57;;;;;;;86.17;39.87;;;;;;;5.51;88.30;95930.41;4972069;28;20188;-77
2022/12/31 02:38:31;;;;;;;76.87;37.80;;;;;;;5.37;88.57;95897.00;4993633;28;20644;-77
2022/12/31 02:40:57;;;;;;;81.00;39.80;;;;;;;5.65;88.40;95937.66;4981440;28;20228;-77
2022/12/31 02:43:24;;;;;;;86.37;41.30;;;;;;;5.62;88.87;95930.13;4981479;28;20182;-77
2022/12/31 02:46:03;;;;;;;91.50;40.07;;;;;;;5.64;88.38;95945.66;4985154;28;20178;-77
2022/12/31 02:48:38;;;;;;;78.90;38.30;;;;;;;5.61;88.15;95941.56;4980641;28;20580;-77
2022/12/31 02:51:22;;;;;;;81.53;36.93;;;;;;;5.58;88.36;95947.09;4979620;28;20260;-77
2022/12/31 02:54:10;;;;;;;76.67;37.70;;;;;;;5.57;88.25;95942.84;4979526;28;20231;-77
2022/12/31 02:57:03;;;;;;;74.83;36.80;;;;;;;5.56;88.09;95950.81;4973110;28;20192;-77
2022/12/31 03:02:34;;;;;;;77.57;36.00;;;;;;;5.37;87.68;95917.88;4982107;28;20184;-77
2022/12/31 03:05:01;;;;;;;74.30;36.57;;;;;;;5.30;87.60;95911.63;4975672;28;20188;-77
2022/12/31 03:07:31;;;;;;;79.57;37.37;;;;;;;5.40;87.65;95938.47;4977978;28;20192;-77
2022/12/31 03:09:58;;;;;;;71.93;35.53;;;;;;;5.27;87.86;95920.59;4980733;28;20220;-77
2022/12/31 03:12:45;;;;;;;72.03;36.33;;;;;;;5.25;87.87;95926.94;4979282;28;20203;-77
2022/12/31 03:15:21;;;;;;;79.67;37.10;;;;;;;5.17;87.87;95924.28;4977705;28;20173;-77
2022/12/31 03:18:00;;;;;;;78.30;40.17;;;;;;;5.11;87.89;95923.06;4981339;28;20193;-77
2022/12/31 03:23:36;;;;;;;85.25;43.72;;;;;;;5.10;88.65;95924.03;4984732;28;20415;-77
2022/12/31 03:26:10;;;;;;;90.53;44.13;;;;;;;5.08;88.74;95926.00;4984119;28;20192;-77
2022/12/31 03:28:40;;;;;;;80.80;42.23;;;;;;;5.03;88.67;95925.59;4974485;28;20240;-77
2022/12/31 03:31:06;;;;;;;88.50;42.37;;;;;;;4.94;89.05;95932.53;4988774;28;20189;-77
2022/12/31 03:33:36;;;;;;;77.63;38.27;;;;;;;4.93;88.93;95930.91;4982835;28;20236;-77
2022/12/31 03:36:08;;;;;;;87.53;39.10;;;;;;;4.92;88.53;95934.50;4972426;28;20185;-77
2022/12/31 03:38:33;;;;;;;96.60;45.37;;;;;;;4.71;88.79;95912.28;4975623;28;20248;-77
2022/12/31 03:40:59;;;;;;;89.10;43.20;;;;;;;4.76;88.94;95923.06;4984773;28;20702;-77
2022/12/31 03:43:24;;;;;;;118.57;50.73;;;;;;;4.78;88.92;95931.56;4978963;28;20264;-77
2022/12/31 03:45:51;;;;;;;106.73;56.37;;;;;;;4.73;89.35;95936.44;4979502;28;20428;-77
2022/12/31 03:48:17;;;;;;;106.83;52.23;;;;;;;4.59;89.01;95918.66;4973534;28;20210;-77
2022/12/31 03:50:43;;;;;;;114.90;56.43;;;;;;;4.60;89.13;95928.13;4982800;28;20177;-77
2022/12/31 03:53:09;;;;;;;108.97;55.13;;;;;;;4.70;89.07;95945.34;4988570;28;20539;-77
2022/12/31 03:55:34;;;;;;;118.20;55.07;;;;;;;4.71;89.01;95946.19;4980542;28;20174;-77
2022/12/31 03:58:00;;;;;;;117.87;56.37;;;;;;;4.69;89.27;95945.50;4985165;28;20671;-77
2022/12/31 04:00:25;;;;;;;112.07;55.17;;;;;;;4.30;89.79;95918.88;4984220;28;20340;-77
2022/12/31 04:02:51;;;;;;;114.93;55.30;;;;;;;4.42;90.36;95951.56;4984014;28;20177;-77
2022/12/31 04:05:18;;;;;;;123.03;54.67;;;;;;;4.50;90.14;95952.47;4982838;28;20252;-75
2022/12/31 04:07:43;;;;;;;103.20;51.17;;;;;;;4.38;89.98;95932.81;4973803;28;20220;-76
2022/12/31 04:10:12;;;;;;;110.00;51.00;;;;;;;4.38;90.81;95934.59;4971992;28;20201;-76
2022/12/31 04:12:38;;;;;;;106.33;51.03;;;;;;;4.49;90.25;95957.84;4972726;28;20233;-76
2022/12/31 04:15:05;;;;;;;110.13;53.78;;;;;;;4.40;89.81;95948.31;4986197;28;20455;-76
2022/12/31 04:17:30;;;;;;;109.07;52.70;;;;;;;4.33;89.99;95934.19;4988713;28;20199;-77
2022/12/31 04:19:55;;;;;;;100.83;52.00;;;;;;;4.34;89.65;95941.88;4984644;28;20712;-77
2022/12/31 04:22:21;;;;;;;115.30;52.17;;;;;;;4.40;89.45;95959.56;4975410;28;20181;-76
2022/12/31 04:24:46;;;;;;;101.13;49.20;;;;;;;4.31;89.74;95946.56;4974749;28;20180;-74
2022/12/31 04:27:12;;;;;;;111.27;52.40;;;;;;;4.42;89.47;95956.78;4992331;28;20268;-75
2022/12/31 04:29:38;;;;;;;103.67;51.70;;;;;;;4.42;89.41;95962.00;4973857;28;20209;-75
2022/12/31 04:32:04;;;;;;;99.60;48.20;;;;;;;4.46;89.20;95971.16;4972605;28;20186;-75
2022/12/31 04:34:30;;;;;;;100.00;47.70;;;;;;;4.41;89.47;95968.19;4972416;28;20659;-75
2022/12/31 04:36:55;;;;;;;105.57;49.53;;;;;;;4.46;89.38;95976.38;4973100;28;20257;-77
2022/12/31 04:39:21;;;;;;;100.87;50.07;;;;;;;4.44;89.05;95973.09;4976984;28;20704;-77
2022/12/31 04:41:46;;;;;;;100.73;47.97;;;;;;;4.30;89.59;95955.34;4975844;28;20659;-77
2022/12/31 04:44:12;;;;;;;108.73;56.37;;;;;;;4.06;90.18;95915.00;4991112;28;20487;-77
2022/12/31 04:46:37;;;;;;;95.43;46.60;;;;;;;4.24;89.15;95955.94;4988338;28;20203;-77
2022/12/31 04:49:03;;;;;;;108.27;49.97;;;;;;;4.36;88.82;95976.44;4987249;28;20233;-77
2022/12/31 04:51:30;;;;;;;94.67;48.77;;;;;;;4.34;89.04;95988.78;4989143;28;20212;-77
2022/12/31 04:53:56;;;;;;;96.30;48.27;;;;;;;4.23;88.95;95969.94;4981703;28;20181;-77
2022/12/31 04:56:22;;;;;;;83.37;46.50;;;;;;;4.16;88.85;95975.69;4972185;28;20170;-77
2022/12/31 04:58:47;;;;;;;91.93;46.47;;;;;;;4.11;88.41;95964.06;4980746;28;20328;-77
2022/12/31 05:01:13;;;;;;;97.03;50.30;;;;;;;4.17;88.18;95979.94;4976269;28;20695;-77
2022/12/31 05:03:39;;;;;;;98.10;49.70;;;;;;;4.11;87.88;95977.91;4981923;28;20173;-77
2022/12/31 05:06:07;;;;;;;110.43;53.80;;;;;;;4.02;87.88;95978.78;4983419;28;20173;-77
2022/12/31 05:08:33;;;;;;;141.13;68.97;;;;;;;3.99;88.63;95988.66;4991577;28;20672;-77
2022/12/31 05:10:59;;;;;;;143.53;71.63;;;;;;;3.90;89.12;95982.50;4988382;28;20324;-77
2022/12/31 05:13:26;;;;;;;149.03;76.23;;;;;;;4.05;89.66;96001.94;4990686;28;20214;-77
2022/12/31 05:15:51;;;;;;;135.43;70.27;;;;;;;3.81;89.81;95975.53;4977620;28;20186;-77
2022/12/31 05:18:17;;;;;;;127.17;63.03;;;;;;;3.88;89.79;95992.25;4972791;28;20657;-76
2022/12/31 05:20:43;;;;;;;132.33;63.27;;;;;;;3.92;88.73;95996.22;4981395;28;20177;-76
2022/12/31 05:23:08;;;;;;;146.33;73.47;;;;;;;3.58;88.60;95954.22;4992292;28;20192;-77
2022/12/31 05:25:34;;;;;;;138.73;69.50;;;;;;;3.79;89.20;95993.13;4988037;28;20319;-77
2022/12/31 05:27:59;;;;;;;136.53;67.50;;;;;;;3.92;89.29;96022.25;4984372;28;20717;-77
2022/12/31 05:30:25;;;;;;;147.30;75.03;;;;;;;3.91;89.25;96015.41;4981225;28;20188;-77
2022/12/31 05:32:50;;;;;;;152.40;75.97;;;;;;;3.79;89.22;96003.53;4990912;28;20312;-77
2022/12/31 05:35:16;;;;;;;144.97;77.33;;;;;;;3.84;89.34;96019.53;4982972;28;20669;-77
2022/12/31 05:37:42;;;;;;;149.47;74.60;;;;;;;3.91;89.27;96025.00;4983474;28;20672;-77
2022/12/31 05:40:08;;;;;;;137.40;69.17;;;;;;;3.91;89.18;96023.22;4983171;28;20224;-77
2022/12/31 05:42:33;;;;;;;134.03;72.23;;;;;;;3.74;88.78;96008.31;4984993;28;20836;-77
2022/12/31 05:44:59;;;;;;;137.67;71.60;;;;;;;3.62;88.18;95988.63;4983316;28;20193;-77
2022/12/31 05:47:24;;;;;;;131.63;69.10;;;;;;;3.86;88.20;96030.66;4980532;28;20264;-77
2022/12/31 05:49:50;;;;;;;139.30;74.60;;;;;;;3.69;88.22;96008.75;4980329;28;20280;-77
2022/12/31 05:52:15;;;;;;;160.17;76.13;;;;;;;3.59;88.22;96007.13;4984765;28;20189;-77
2022/12/31 05:54:41;;;;;;;150.73;77.27;;;;;;;3.55;88.68;96010.94;4985246;28;20197;-77
2022/12/31 05:57:06;;;;;;;147.03;75.13;;;;;;;3.70;88.65;96030.41;4986803;28;20187;-77
2022/12/31 05:59:32;;;;;;;145.90;74.73;;;;;;;3.67;88.79;96020.25;4995683;28;20185;-77
2022/12/31 06:01:58;;;;;;;147.30;77.17;;;;;;;3.68;88.61;96040.13;4988469;28;20189;-77
2022/12/31 06:04:23;;;;;;;149.37;74.13;;;;;;;3.53;88.92;96010.28;4983619;28;20198;-77
2022/12/31 06:06:49;;;;;;;154.47;77.23;;;;;;;3.74;88.30;96039.56;4984655;28;20232;-77
2022/12/31 06:09:18;;;;;;;147.87;75.40;;;;;;;3.77;88.33;96044.50;4989407;28;20275;-77
2022/12/31 06:11:44;;;;;;;154.47;76.90;;;;;;;3.80;88.82;96047.63;4991285;28;20243;-77
2022/12/31 06:14:09;;;;;;;148.43;74.37;;;;;;;3.85;88.58;96038.59;4980757;28;20189;-77
2022/12/31 06:16:35;;;;;;;149.03;72.73;;;;;;;3.80;88.80;96037.22;4984293;28;20185;-77
2022/12/31 06:19:01;;;;;;;174.47;85.60;;;;;;;3.74;88.79;96029.97;4984109;28;20185;-77
2022/12/31 06:21:26;;;;;;;169.53;82.43;;;;;;;3.84;88.93;96044.75;4983939;28;20216;-77
2022/12/31 06:23:52;;;;;;;172.67;83.30;;;;;;;3.98;88.45;96062.56;4989834;28;20821;-77
2022/12/31 06:26:17;;;;;;;169.73;83.23;;;;;;;3.98;88.17;96059.97;4982499;28;20188;-77
2022/12/31 06:28:43;;;;;;;160.40;78.10;;;;;;;3.72;88.88;96021.47;4978503;28;20198;-77
2022/12/31 06:31:13;;;;;;;186.57;87.47;;;;;;;3.92;88.72;96050.91;4974287;28;20266;-77
2022/12/31 06:33:39;;;;;;;200.57;96.07;;;;;;;4.05;88.76;96066.25;4981979;28;20656;-77
2022/12/31 06:36:08;;;;;;;185.40;90.17;;;;;;;4.20;88.85;96077.03;4990623;28;20259;-77
2022/12/31 06:38:37;;;;;;;190.57;95.00;;;;;;;4.11;87.82;96056.09;4975519;28;20848;-77
2022/12/31 06:41:09;;;;;;;218.50;103.13;;;;;;;4.36;87.62;96087.69;4975499;28;20709;-77
2022/12/31 06:43:35;;;;;;;256.33;130.10;;;;;;;4.30;88.33;96059.59;4991941;28;20254;-77
2022/12/31 06:46:02;;;;;;;308.73;143.43;;;;;;;4.70;88.23;96091.41;4986263;28;20200;-77
2022/12/31 06:48:27;;;;;;;299.27;132.13;;;;;;;5.14;88.20;96092.41;4983225;28;20197;-77
2022/12/31 06:50:52;;;;;;;213.50;107.47;;;;;;;5.72;85.47;96081.53;4987464;28;20624;-77
2022/12/31 06:53:18;;;;;;;223.27;110.03;;;;;;;6.32;82.14;96092.97;4979902;28;20185;-77
2022/12/31 06:55:44;;;;;;;251.27;129.10;;;;;;;6.60;80.30;96098.84;4988728;28;20184;-77
2022/12/31 06:58:13;;;;;;;325.33;165.90;;;;;;;6.79;79.43;96090.78;4990768;28;20937;-77
2022/12/31 07:00:52;;;;;;;305.40;162.90;;;;;;;7.35;78.61;96109.47;4983538;28;20176;-77
2022/12/31 07:03:47;;;;;;;292.83;150.77;;;;;;;7.90;76.88;96086.94;4983146;28;20209;-77
2022/12/31 07:06:24;;;;;;;150.73;82.53;;;;;;;8.69;73.66;96107.22;4978274;28;20173;-77
2022/12/31 07:09:00;;;;;;;120.70;63.87;;;;;;;8.98;70.86;96061.19;4982908;28;20196;-77
2022/12/31 07:11:34;;;;;;;112.80;57.63;;;;;;;9.58;69.28;96106.03;4970451;28;20185;-77
2022/12/31 07:14:26;;;;;;;111.43;58.57;;;;;;;9.92;68.41;96124.06;4980260;28;20180;-77
2022/12/31 07:17:22;;;;;;;104.87;58.37;;;;;;;10.19;67.73;96128.00;4982224;28;20266;-77
2022/12/31 07:19:50;;;;;;;105.80;53.80;;;;;;;10.35;66.88;96132.31;4972651;28;20668;-77
2022/12/31 07:22:17;;;;;;;97.93;52.03;;;;;;;10.81;65.99;96136.44;4988277;28;20268;-77
2022/12/31 07:24:43;;;;;;;105.43;58.57;;;;;;;11.39;64.33;96134.81;4985287;28;20658;-76
2022/12/31 07:27:14;;;;;;;93.53;56.60;;;;;;;11.75;62.81;96139.34;4989213;28;20192;-75
2022/12/31 07:29:48;;;;;;;106.27;56.87;;;;;;;12.42;61.38;96143.25;4993840;28;20300;-76
2022/12/31 07:32:43;;;;;;;97.60;57.30;;;;;;;13.09;59.67;96140.06;4975845;28;20203;-77
2022/12/31 07:35:23;;;;;;;90.13;53.37;;;;;;;14.24;56.84;96148.09;4969855;28;20181;-76
2022/12/31 07:37:57;;;;;;;100.57;55.30;;;;;;;15.46;53.27;96135.16;4973929;28;20179;-76
2022/12/31 07:40:37;;;;;;;90.97;53.13;;;;;;;17.09;49.62;96127.41;4974005;28;20304;-77
2022/12/31 07:43:29;;;;;;;58.58;37.50;;;;;;;18.57;46.19;96143.84;4978808;28;20189;-77
2022/12/31 07:46:34;;;;;;;64.22;41.78;;;;;;;18.43;45.01;96137.84;4976528;28;20193;-77
2022/12/31 07:48:59;;;;;;;61.95;36.83;;;;;;;17.44;46.71;96149.75;4965610;28;20239;-77
2022/12/31 07:51:25;;;;;;;75.00;44.10;;;;;;;16.46;48.43;96146.09;4982715;28;20182;-77
2022/12/31 07:53:50;;;;;;;67.45;41.63;;;;;;;15.52;51.02;96143.31;4973866;28;20240;-77
2022/12/31 07:56:16;;;;;;;60.85;35.90;;;;;;;14.43;53.24;96117.38;4985814;28;20184;-77
2022/12/31 07:59:03;;;;;;;63.10;38.07;;;;;;;14.43;54.79;96151.00;4983621;28;20182;-76
2022/12/31 08:01:34;;;;;;;59.87;36.47;;;;;;;15.89;52.36;96150.53;4978227;28;20181;-77
2022/12/31 08:04:02;;;;;;;52.88;33.40;;;;;;;17.68;48.43;96148.91;4976218;28;20192;-77
2022/12/31 08:06:45;;;;;;;62.90;35.58;;;;;;;19.09;44.47;96159.00;4976454;28;20181;-77
2022/12/31 08:09:37;;;;;;;58.92;35.28;;;;;;;20.06;42.65;96153.06;4993059;28;20652;-77
2022/12/31 08:12:03;;;;;;;60.75;36.47;;;;;;;20.78;41.82;96151.44;4980050;28;20181;-77
2022/12/31 08:14:29;;;;;;;57.33;35.47;;;;;;;20.98;40.48;96129.53;4989178;28;20181;-77
2022/12/31 08:16:56;;;;;;;54.08;34.58;;;;;;;21.19;40.46;96144.09;4982033;28;20184;-77
2022/12/31 08:19:27;;;;;;;58.83;33.42;;;;;;;21.04;40.41;96149.97;4986325;28;21009;-77
2022/12/31 08:22:14;;;;;;;58.75;35.42;;;;;;;20.65;40.47;96149.91;4978622;28;20181;-77
2022/12/31 08:25:09;;;;;;;56.40;33.97;;;;;;;20.17;41.16;96152.19;4992924;28;20535;-77
2022/12/31 08:27:43;;;;;;;56.28;34.83;;;;;;;19.61;42.64;96145.75;4987480;28;20537;-77
2022/12/31 08:30:12;;;;;;;50.97;34.50;;;;;;;19.20;43.09;96149.34;4981608;28;20219;-76
2022/12/31 08:32:40;;;;;;;54.53;32.83;;;;;;;18.73;44.33;96146.66;4982639;28;20200;-76
2022/12/31 08:35:33;;;;;;;56.35;35.75;;;;;;;18.28;45.37;96154.28;4982567;28;20675;-76
2022/12/31 08:38:36;;;;;;;55.00;31.77;;;;;;;17.96;45.62;96152.88;4981707;28;20187;-78
2022/12/31 08:41:40;;;;;;;54.67;30.33;;;;;;;17.67;47.33;96151.78;4986025;28;20299;-78
2022/12/31 08:44:27;;;;;;;50.53;29.10;;;;;;;17.42;47.55;96153.69;4968706;28;20185;-77
2022/12/31 08:47:01;;;;;;;48.08;30.58;;;;;;;17.11;47.96;96146.63;4988397;28;20196;-74
2022/12/31 08:49:29;;;;;;;53.78;30.92;;;;;;;16.85;49.34;96139.69;4976810;28;20200;-76
2022/12/31 08:51:55;;;;;;;52.53;30.17;;;;;;;16.65;49.86;96137.19;4989942;28;20220;-77
2022/12/31 08:54:21;;;;;;;52.40;29.85;;;;;;;16.26;50.04;96134.81;4991372;28;20229;-75
2022/12/31 08:56:52;;;;;;;59.90;29.40;;;;;;;15.73;51.53;96137.75;4991127;28;20208;-77
2022/12/31 08:59:35;;;;;;;47.60;29.30;;;;;;;15.59;52.01;96134.31;4991174;28;20181;-77
2022/12/31 09:02:06;;;;;;;58.13;32.53;;;;;;;15.33;52.49;96137.84;4978889;28;20579;-78
2022/12/31 09:05:07;;;;;;;45.33;27.80;;;;;;;15.19;52.41;96133.59;4977112;28;20181;-76
2022/12/31 09:07:37;;;;;;;50.63;28.90;;;;;;;15.08;53.50;96132.41;4952795;28;20288;-76
2022/12/31 09:10:21;;;;;;;42.10;24.53;;;;;;;14.91;52.84;96127.72;4972079;28;20204;-76
2022/12/31 09:12:56;;;;;;;32.37;19.40;;;;;;;14.72;53.44;96119.59;4976373;28;20268;-76
2022/12/31 09:15:30;;;;;;;42.67;24.70;;;;;;;14.52;54.35;96128.59;4968188;28;20189;-76
2022/12/31 09:17:56;;;;;;;45.27;23.93;;;;;;;14.39;55.94;96128.56;4982742;28;20184;-76
2022/12/31 09:20:31;;;;;;;42.03;24.53;;;;;;;14.76;55.47;96127.97;4988017;28;20663;-76
2022/12/31 09:22:59;;;;;;;47.50;26.93;;;;;;;15.09;55.00;96119.94;4970426;28;20266;-76
2022/12/31 09:25:26;;;;;;;51.23;27.13;;;;;;;15.24;53.63;96115.22;4974751;28;20200;-76
2022/12/31 09:28:14;;;;;;;42.00;25.60;;;;;;;15.22;52.33;96124.41;4975258;28;20189;-76
2022/12/31 09:31:01;;;;;;;39.80;22.97;;;;;;;14.98;52.69;96112.63;4980996;28;20276;-76
2022/12/31 09:33:54;;;;;;;33.87;19.83;;;;;;;14.81;54.40;96111.41;4972642;28;20239;-76
2022/12/31 09:36:43;;;;;;;36.87;21.77;;;;;;;14.70;54.21;96100.41;4976812;28;20173;-76
2022/12/31 09:39:31;;;;;;;37.63;20.97;;;;;;;14.69;54.24;96101.47;4985312;28;20193;-75
2022/12/31 09:42:15;;;;;;;38.83;22.03;;;;;;;14.57;54.33;96086.38;4975576;28;20205;-75
2022/12/31 09:44:59;;;;;;;42.43;21.50;;;;;;;14.38;55.82;96074.72;4983311;28;20252;-76
2022/12/31 09:47:52;;;;;;;35.10;19.97;;;;;;;14.26;54.85;96084.31;4975376;28;20267;-75
2022/12/31 09:50:52;;;;;;;32.80;18.10;;;;;;;13.96;55.88;96076.72;4973605;28;20206;-75
2022/12/31 09:53:45;;;;;;;34.23;18.50;;;;;;;13.98;56.94;96074.72;4971667;28;20193;-76
2022/12/31 09:56:10;;;;;;;38.90;22.13;;;;;;;14.05;56.43;96063.31;4986098;28;20169;-76
2022/12/31 09:58:59;;;;;;;42.87;23.00;;;;;;;14.07;56.01;96069.22;4991300;28;20228;-75
2022/12/31 10:01:33;;;;;;;37.60;21.67;;;;;;;13.95;56.74;96069.81;4982544;28;20165;-75
2022/12/31 10:04:17;;;;;;;46.43;24.57;;;;;;;14.01;57.04;96073.47;4976306;28;20254;-76
2022/12/31 10:07:19;;;;;;;51.60;30.10;;;;;;;14.11;56.44;96068.59;4979305;28;20181;-76
2022/12/31 10:09:57;;;;;;;52.10;28.90;;;;;;;14.05;56.27;96066.75;4991005;28;20201;-76
2022/12/31 10:12:57;;;;;;;51.27;30.30;;;;;;;13.97;56.59;96062.47;4988746;28;20656;-76
2022/12/31 10:15:34;;;;;;;50.50;28.13;;;;;;;13.90;56.46;96058.19;4972576;28;20182;-76
2022/12/31 10:18:35;;;;;;;51.10;28.97;;;;;;;13.83;57.14;96050.25;4977944;28;20176;-75
2022/12/31 10:21:15;;;;;;;54.80;28.30;;;;;;;13.80;57.29;96042.69;4971715;28;20177;-76
2022/12/31 10:23:59;;;;;;;42.70;25.10;;;;;;;13.62;57.67;96047.75;4971925;28;20234;-76
2022/12/31 10:26:40;;;;;;;45.27;24.43;;;;;;;13.50;58.85;96036.09;4971581;28;20541;-74
2022/12/31 10:29:24;;;;;;;53.80;26.43;;;;;;;13.35;58.76;96043.41;4971545;28;20295;-75
2022/12/31 10:31:55;;;;;;;41.63;23.07;;;;;;;13.35;61.10;96041.56;4974541;28;20177;-77
2022/12/31 10:34:37;;;;;;;42.43;23.50;;;;;;;13.01;60.43;96029.19;4977064;28;20668;-77
2022/12/31 10:37:05;;;;;;;39.90;22.50;;;;;;;12.68;61.81;96028.22;4975187;28;20229;-74
2022/12/31 10:40:05;;;;;;;46.37;23.53;;;;;;;12.53;62.16;96031.00;4974030;28;20221;-73
2022/12/31 10:42:58;;;;;;;40.47;21.70;;;;;;;12.44;64.34;96029.50;4976356;28;20200;-73
2022/12/31 10:45:39;;;;;;;34.07;20.93;;;;;;;12.46;64.87;96028.28;4976294;28;20177;-74
2022/12/31 10:48:10;;;;;;;42.77;23.73;;;;;;;12.57;66.41;96026.94;4974307;28;20181;-74
2022/12/31 10:50:57;;;;;;;41.90;23.10;;;;;;;12.64;63.90;96024.31;4974592;28;20166;-74
2022/12/31 10:54:09;;;;;;;42.90;23.43;;;;;;;12.45;64.14;95994.16;4974338;28;20177;-74
2022/12/31 10:57:05;;;;;;;39.43;22.60;;;;;;;12.58;66.29;96017.19;4974351;28;20252;-74
2022/12/31 10:59:46;;;;;;;41.93;22.47;;;;;;;12.61;66.40;96017.63;4974521;28;20637;-74
2022/12/31 11:02:17;;;;;;;40.47;21.93;;;;;;;12.72;66.28;96016.25;4991411;28;20185;-73
2022/12/31 11:05:19;;;;;;;36.07;21.77;;;;;;;12.81;65.56;96018.53;4984000;28;20553;-74
2022/12/31 11:08:06;;;;;;;43.40;22.53;;;;;;;12.93;65.75;96016.16;4972985;28;20287;-75
2022/12/31 11:10:59;;;;;;;41.97;22.97;;;;;;;13.00;64.13;96018.81;4987526;28;20264;-74
2022/12/31 11:13:31;;;;;;;40.37;22.23;;;;;;;13.03;65.35;96013.16;4987280;28;20731;-74
2022/12/31 11:16:25;;;;;;;35.53;21.37;;;;;;;12.89;63.61;95991.13;4970395;28;20259;-74
2022/12/31 11:19:05;;;;;;;43.13;22.63;;;;;;;12.97;63.81;96004.19;4981707;28;20193;-74
2022/12/31 11:21:53;;;;;;;39.07;22.13;;;;;;;12.94;66.91;96001.94;4981297;28;20271;-75
2022/12/31 11:24:26;;;;;;;36.93;22.53;;;;;;;12.90;64.22;95995.41;4974187;28;20170;-74
2022/12/31 11:27:15;;;;;;;47.03;23.40;;;;;;;12.90;62.93;95994.56;4970340;28;20653;-74
2022/12/31 11:29:54;;;;;;;40.57;24.83;;;;;;;12.80;64.20;95990.47;4973605;28;20275;-75
2022/12/31 11:32:32;;;;;;;46.87;25.23;;;;;;;12.81;66.50;95994.75;4984095;28;20179;-75
2022/12/31 11:35:19;;;;;;;53.20;24.00;;;;;;;12.77;66.55;95993.53;4974184;28;20213;-73
2022/12/31 11:37:53;;;;;;;42.53;24.53;;;;;;;12.56;66.84;95966.38;4973513;28;20532;-75
2022/12/31 11:40:18;;;;;;;49.03;24.73;;;;;;;12.77;67.31;95987.41;4973640;28;20233;-75
2022/12/31 11:43:19;;;;;;;42.27;25.07;;;;;;;12.74;66.83;95977.22;4991326;28;20182;-76
2022/12/31 11:45:51;;;;;;;47.67;26.07;;;;;;;12.78;66.03;95981.13;4972739;28;20181;-75
2022/12/31 11:48:42;;;;;;;52.83;28.57;;;;;;;12.83;66.56;95978.69;4973239;28;20257;-74
2022/12/31 11:51:32;;;;;;;48.17;29.27;;;;;;;12.83;64.76;95978.69;4982347;28;20268;-76
2022/12/31 11:54:35;;;;;;;57.47;26.70;;;;;;;12.85;64.79;95971.41;4992118;28;20246;-75